sensor_id;sensor_type;location;lat;lon;timestamp;pressure;altitude;pressure_sealevel;temperature;humidity
63883;BME280;50047;50.596;30.466;2023-05-16T17:39:46;99343.50;;;16.46;47.48
63883;BME280;50047;50.596;30.466;2023-05-16T17:42:13;99343.20;;;16.40;47.30
63883;BME280;50047;50.596;30.466;2023-05-16T17:44:41;99345.86;;;16.35;47.71
63883;BME280;50047;50.596;30.466;2023-05-16T17:47:08;99340.05;;;16.33;47.78
63883;BME280;50047;50.596;30.466;2023-05-16T17:49:35;99341.37;;;16.30;48.06
63883;BME280;50047;50.596;30.466;2023-05-16T17:52:03;99336.25;;;16.25;48.40
63883;BME280;50047;50.596;30.466;2023-05-16T17:54:30;99338.76;;;16.22;48.44
63883;BME280;50047;50.596;30.466;2023-05-16T17:56:58;99337.30;;;16.19;48.71
63883;BME280;50047;50.596;30.466;2023-05-16T17:59:26;99338.73;;;16.15;48.80
63883;BME280;50047;50.596;30.466;2023-05-16T18:01:54;99343.55;;;16.13;48.87
63883;BME280;50047;50.596;30.466;2023-05-16T18:04:24;99343.14;;;16.09;48.98
63883;BME280;50047;50.596;30.466;2023-05-16T18:06:51;99341.24;;;16.06;49.04
63883;BME280;50047;50.596;30.466;2023-05-16T18:09:19;99341.27;;;16.03;49.18
63883;BME280;50047;50.596;30.466;2023-05-16T18:11:46;99340.67;;;16.00;49.23
63883;BME280;50047;50.596;30.466;2023-05-16T18:14:14;99341.29;;;15.97;49.25
63883;BME280;50047;50.596;30.466;2023-05-16T18:16:42;99344.74;;;15.95;49.12
63883;BME280;50047;50.596;30.466;2023-05-16T18:19:09;99344.04;;;15.91;49.17
63883;BME280;50047;50.596;30.466;2023-05-16T18:21:38;99343.08;;;15.89;49.24
63883;BME280;50047;50.596;30.466;2023-05-16T18:24:06;99342.83;;;15.86;49.45
63883;BME280;50047;50.596;30.466;2023-05-16T18:26:35;99344.33;;;15.84;49.43
63883;BME280;50047;50.596;30.466;2023-05-16T18:29:02;99341.23;;;15.81;49.71
63883;BME280;50047;50.596;30.466;2023-05-16T18:31:30;99341.61;;;15.79;49.71
63883;BME280;50047;50.596;30.466;2023-05-16T18:33:59;99344.10;;;15.77;49.50
63883;BME280;50047;50.596;30.466;2023-05-16T18:36:29;99344.81;;;15.77;49.59
63883;BME280;50047;50.596;30.466;2023-05-16T18:38:57;99349.89;;;15.74;49.90
63883;BME280;50047;50.596;30.466;2023-05-16T18:41:24;99352.91;;;15.71;50.28
63883;BME280;50047;50.596;30.466;2023-05-16T18:43:53;99354.58;;;15.70;50.11
63883;BME280;50047;50.596;30.466;2023-05-16T18:46:20;99356.37;;;15.68;50.12
63883;BME280;50047;50.596;30.466;2023-05-16T18:48:48;99358.46;;;15.69;50.07
63883;BME280;50047;50.596;30.466;2023-05-16T18:51:15;99362.47;;;15.67;50.15
63883;BME280;50047;50.596;30.466;2023-05-16T18:53:43;99360.91;;;15.66;50.32
63883;BME280;50047;50.596;30.466;2023-05-16T18:56:10;99360.10;;;15.64;50.35
63883;BME280;50047;50.596;30.466;2023-05-16T18:58:38;99353.96;;;15.62;50.66
63883;BME280;50047;50.596;30.466;2023-05-16T19:01:05;99352.23;;;15.60;50.59
63883;BME280;50047;50.596;30.466;2023-05-16T19:03:32;99353.90;;;15.59;50.76
63883;BME280;50047;50.596;30.466;2023-05-16T19:06:00;99358.49;;;15.57;50.75
63883;BME280;50047;50.596;30.466;2023-05-16T19:08:28;99354.50;;;15.57;50.85
63883;BME280;50047;50.596;30.466;2023-05-16T19:11:13;99350.46;;;15.56;50.96
63883;BME280;50047;50.596;30.466;2023-05-16T19:13:40;99351.96;;;15.54;51.03
63883;BME280;50047;50.596;30.466;2023-05-16T19:16:07;99351.75;;;15.55;50.97
63883;BME280;50047;50.596;30.466;2023-05-16T19:18:35;99347.70;;;15.56;51.00
63883;BME280;50047;50.596;30.466;2023-05-16T19:21:03;99349.10;;;15.55;51.21
63883;BME280;50047;50.596;30.466;2023-05-16T19:23:31;99350.95;;;15.54;51.23
63883;BME280;50047;50.596;30.466;2023-05-16T19:25:59;99348.95;;;15.54;51.23
63883;BME280;50047;50.596;30.466;2023-05-16T19:28:26;99346.63;;;15.55;51.40
63883;BME280;50047;50.596;30.466;2023-05-16T19:30:53;99351.48;;;15.55;51.35
63883;BME280;50047;50.596;30.466;2023-05-16T19:33:21;99346.52;;;15.56;51.56
63883;BME280;50047;50.596;30.466;2023-05-16T19:35:48;99342.75;;;15.58;51.32
63883;BME280;50047;50.596;30.466;2023-05-16T19:38:17;99343.54;;;15.59;51.49
63883;BME280;50047;50.596;30.466;2023-05-16T19:40:45;99342.89;;;15.60;51.54
63883;BME280;50047;50.596;30.466;2023-05-16T19:43:13;99345.06;;;15.61;51.64
63883;BME280;50047;50.596;30.466;2023-05-16T19:45:40;99345.75;;;15.63;51.22
63883;BME280;50047;50.596;30.466;2023-05-16T19:48:07;99346.55;;;15.64;51.61
63883;BME280;50047;50.596;30.466;2023-05-16T19:50:35;99345.16;;;15.64;51.60
63883;BME280;50047;50.596;30.466;2023-05-16T19:53:02;99348.83;;;15.63;51.78
63883;BME280;50047;50.596;30.466;2023-05-16T19:55:30;99345.27;;;15.62;51.67
63883;BME280;50047;50.596;30.466;2023-05-16T19:57:57;99342.67;;;15.64;51.57
63883;BME280;50047;50.596;30.466;2023-05-16T20:00:25;99344.30;;;15.65;51.52
63883;BME280;50047;50.596;30.466;2023-05-16T20:02:55;99341.38;;;15.66;51.89
63883;BME280;50047;50.596;30.466;2023-05-16T20:05:22;99340.84;;;15.67;51.81
63883;BME280;50047;50.596;30.466;2023-05-16T20:07:50;99346.87;;;15.68;51.83
63883;BME280;50047;50.596;30.466;2023-05-16T20:10:19;99343.00;;;15.67;52.01
63883;BME280;50047;50.596;30.466;2023-05-16T20:12:47;99341.33;;;15.66;52.18
63883;BME280;50047;50.596;30.466;2023-05-16T20:15:15;99342.30;;;15.67;51.96
63883;BME280;50047;50.596;30.466;2023-05-16T20:17:42;99341.55;;;15.67;52.01
63883;BME280;50047;50.596;30.466;2023-05-16T20:20:09;99342.63;;;15.67;51.97
63883;BME280;50047;50.596;30.466;2023-05-16T20:22:37;99342.30;;;15.66;52.02
63883;BME280;50047;50.596;30.466;2023-05-16T20:25:08;99343.44;;;15.64;52.04
63883;BME280;50047;50.596;30.466;2023-05-16T20:27:36;99345.16;;;15.63;52.16
63883;BME280;50047;50.596;30.466;2023-05-16T20:30:05;99347.10;;;15.62;52.23
63883;BME280;50047;50.596;30.466;2023-05-16T20:32:33;99344.03;;;15.61;52.32
63883;BME280;50047;50.596;30.466;2023-05-16T20:35:01;99342.20;;;15.60;52.63
63883;BME280;50047;50.596;30.466;2023-05-16T20:37:30;99342.95;;;15.59;52.68
63883;BME280;50047;50.596;30.466;2023-05-16T20:39:57;99344.95;;;15.59;52.55
63883;BME280;50047;50.596;30.466;2023-05-16T20:42:25;99341.66;;;15.58;52.44
63883;BME280;50047;50.596;30.466;2023-05-16T20:44:52;99342.31;;;15.58;52.45
63883;BME280;50047;50.596;30.466;2023-05-16T20:47:19;99339.90;;;15.56;52.52
63883;BME280;50047;50.596;30.466;2023-05-16T20:49:46;99337.30;;;15.54;52.61
63883;BME280;50047;50.596;30.466;2023-05-16T20:52:14;99337.52;;;15.52;52.58
63883;BME280;50047;50.596;30.466;2023-05-16T20:54:41;99336.81;;;15.51;52.63
63883;BME280;50047;50.596;30.466;2023-05-16T20:57:08;99334.63;;;15.48;52.65
63883;BME280;50047;50.596;30.466;2023-05-16T20:59:36;99334.56;;;15.46;52.86
63883;BME280;50047;50.596;30.466;2023-05-16T21:02:04;99334.19;;;15.44;52.77
63883;BME280;50047;50.596;30.466;2023-05-16T21:04:37;99336.45;;;15.43;52.86
63883;BME280;50047;50.596;30.466;2023-05-16T21:07:05;99333.01;;;15.43;52.96
63883;BME280;50047;50.596;30.466;2023-05-16T21:09:34;99329.08;;;15.41;53.18
63883;BME280;50047;50.596;30.466;2023-05-16T21:12:04;99330.90;;;15.41;53.23
63883;BME280;50047;50.596;30.466;2023-05-16T21:14:31;99327.45;;;15.41;53.30
63883;BME280;50047;50.596;30.466;2023-05-16T21:16:58;99326.16;;;15.40;53.24
63883;BME280;50047;50.596;30.466;2023-05-16T21:19:26;99325.09;;;15.38;53.45
63883;BME280;50047;50.596;30.466;2023-05-16T21:21:53;99319.00;;;15.36;53.40
63883;BME280;50047;50.596;30.466;2023-05-16T21:24:20;99319.42;;;15.36;53.34
63883;BME280;50047;50.596;30.466;2023-05-16T21:26:48;99323.79;;;15.36;53.46
63883;BME280;50047;50.596;30.466;2023-05-16T21:29:15;99322.77;;;15.33;53.39
63883;BME280;50047;50.596;30.466;2023-05-16T21:31:42;99318.08;;;15.32;53.69
63883;BME280;50047;50.596;30.466;2023-05-16T21:34:09;99318.20;;;15.28;53.79
63883;BME280;50047;50.596;30.466;2023-05-16T21:36:37;99317.45;;;15.25;53.92
63883;BME280;50047;50.596;30.466;2023-05-16T21:39:04;99320.57;;;15.23;53.85
63883;BME280;50047;50.596;30.466;2023-05-16T21:41:32;99319.87;;;15.21;54.15
63883;BME280;50047;50.596;30.466;2023-05-16T21:43:59;99319.29;;;15.21;53.92
63883;BME280;50047;50.596;30.466;2023-05-16T21:46:26;99315.30;;;15.20;54.10
63883;BME280;50047;50.596;30.466;2023-05-16T21:48:53;99314.34;;;15.19;54.14
63883;BME280;50047;50.596;30.466;2023-05-16T21:51:21;99310.01;;;15.18;54.17
63883;BME280;50047;50.596;30.466;2023-05-16T21:53:48;99308.11;;;15.18;54.09
63883;BME280;50047;50.596;30.466;2023-05-16T21:56:15;99309.63;;;15.17;53.92
63883;BME280;50047;50.596;30.466;2023-05-16T21:58:44;99313.29;;;15.17;54.24
63883;BME280;50047;50.596;30.466;2023-05-16T22:01:11;99314.11;;;15.16;54.26
63883;BME280;50047;50.596;30.466;2023-05-16T22:03:38;99313.27;;;15.16;54.18
63883;BME280;50047;50.596;30.466;2023-05-16T22:06:06;99311.36;;;15.15;54.30
63883;BME280;50047;50.596;30.466;2023-05-16T22:08:33;99313.52;;;15.13;54.33
63883;BME280;50047;50.596;30.466;2023-05-16T22:11:00;99312.34;;;15.13;54.20
63883;BME280;50047;50.596;30.466;2023-05-16T22:13:28;99311.79;;;15.13;54.16
63883;BME280;50047;50.596;30.466;2023-05-16T22:15:55;99318.58;;;15.12;54.38
63883;BME280;50047;50.596;30.466;2023-05-16T22:18:28;99319.54;;;15.11;54.42
63883;BME280;50047;50.596;30.466;2023-05-16T22:20:56;99318.69;;;15.10;54.50
63883;BME280;50047;50.596;30.466;2023-05-16T22:23:23;99321.88;;;15.11;54.43
63883;BME280;50047;50.596;30.466;2023-05-16T22:25:51;99321.70;;;15.10;54.44
63883;BME280;50047;50.596;30.466;2023-05-16T22:28:18;99324.40;;;15.08;54.67
63883;BME280;50047;50.596;30.466;2023-05-16T22:30:46;99324.66;;;15.08;54.35
63883;BME280;50047;50.596;30.466;2023-05-16T22:33:13;99324.02;;;15.08;54.16
63883;BME280;50047;50.596;30.466;2023-05-16T22:35:40;99323.98;;;15.06;54.45
63883;BME280;50047;50.596;30.466;2023-05-16T22:38:08;99321.49;;;15.05;54.32
63883;BME280;50047;50.596;30.466;2023-05-16T22:40:35;99323.38;;;15.04;54.20
63883;BME280;50047;50.596;30.466;2023-05-16T22:43:02;99325.42;;;15.03;54.27
63883;BME280;50047;50.596;30.466;2023-05-16T22:45:31;99325.10;;;15.04;54.26
63883;BME280;50047;50.596;30.466;2023-05-16T22:47:58;99320.52;;;15.02;54.19
63883;BME280;50047;50.596;30.466;2023-05-16T22:50:26;99318.80;;;15.02;54.08
63883;BME280;50047;50.596;30.466;2023-05-16T22:52:53;99321.81;;;15.02;54.10
63883;BME280;50047;50.596;30.466;2023-05-16T22:55:20;99322.84;;;15.01;54.20
63883;BME280;50047;50.596;30.466;2023-05-16T22:57:47;99321.00;;;14.99;54.44
63883;BME280;50047;50.596;30.466;2023-05-16T23:00:15;99320.95;;;14.98;54.36
63883;BME280;50047;50.596;30.466;2023-05-16T23:02:42;99322.77;;;14.97;54.41
63883;BME280;50047;50.596;30.466;2023-05-16T23:05:09;99322.66;;;14.97;54.55
63883;BME280;50047;50.596;30.466;2023-05-16T23:07:37;99324.51;;;14.98;54.48
63883;BME280;50047;50.596;30.466;2023-05-16T23:10:06;99327.95;;;14.98;54.62
63883;BME280;50047;50.596;30.466;2023-05-16T23:12:33;99326.11;;;14.98;54.57
63883;BME280;50047;50.596;30.466;2023-05-16T23:15:00;99325.90;;;14.99;54.75
63883;BME280;50047;50.596;30.466;2023-05-16T23:17:28;99325.58;;;14.96;54.77
63883;BME280;50047;50.596;30.466;2023-05-16T23:19:55;99325.48;;;14.95;54.70
63883;BME280;50047;50.596;30.466;2023-05-16T23:22:23;99327.10;;;14.93;54.92
63883;BME280;50047;50.596;30.466;2023-05-16T23:24:51;99331.13;;;14.92;54.83
63883;BME280;50047;50.596;30.466;2023-05-16T23:27:18;99328.59;;;14.90;55.35
63883;BME280;50047;50.596;30.466;2023-05-16T23:29:45;99326.05;;;14.90;55.08
63883;BME280;50047;50.596;30.466;2023-05-16T23:32:12;99330.17;;;14.92;55.04
63883;BME280;50047;50.596;30.466;2023-05-16T23:34:40;99331.02;;;14.94;55.08
63883;BME280;50047;50.596;30.466;2023-05-16T23:37:07;99331.35;;;14.97;55.05
63883;BME280;50047;50.596;30.466;2023-05-16T23:39:35;99332.00;;;15.01;55.16
63883;BME280;50047;50.596;30.466;2023-05-16T23:42:02;99333.66;;;15.03;55.20
63883;BME280;50047;50.596;30.466;2023-05-16T23:44:29;99332.70;;;15.07;55.12
63883;BME280;50047;50.596;30.466;2023-05-16T23:46:58;99330.05;;;15.09;55.18
63883;BME280;50047;50.596;30.466;2023-05-16T23:49:25;99330.48;;;15.12;55.16
63883;BME280;50047;50.596;30.466;2023-05-16T23:51:52;99331.89;;;15.14;54.98
63883;BME280;50047;50.596;30.466;2023-05-16T23:54:24;99331.08;;;15.16;55.15
63883;BME280;50047;50.596;30.466;2023-05-16T23:56:52;99331.84;;;15.18;55.07
63883;BME280;50047;50.596;30.466;2023-05-16T23:59:19;99331.89;;;15.19;55.15
